Flight Track Log - Related Links

Times and Time Zones

All times are in EDT time to prevent confusion due to time zone crossing. See the ELJ309 flight status page for this flight to view local times or setup timezone preferences in your user account.

Time Position Orientation Groundspeed Altitude Reporting Facility
EDT Latitude Longitude Course Direction KTS MPH feet Rate Location/Type
Sun 08:29:27 PM 32.9908 -80.0669 314° West 267 307 4,400  Level Jacksonville Center
Sun 08:30:27 PM 33.0522 -80.0994 336° Northwest 273 314 8,100 3,100 Climbing Jacksonville Center
Sun 08:31:27 PM 33.1197 -80.1372 335° Northwest 287 330 10,600 2,500 Climbing Jacksonville Center
Sun 08:32:27 PM 33.2019 -80.1792 337° Northwest 302 348 13,100 2,450 Climbing Jacksonville Center
Sun 08:33:27 PM 33.2986 -80.2011 349° North 325 374 15,500 2,400 Climbing Jacksonville Center
Sun 08:34:00 PM 33.4159 -80.3698 314° West  Level FlightAware Approximate
Sun 08:34:27 PM 33.3928 -80.2233 349° North 337 388 17,900  Level Jacksonville Center
Sun 08:35:27 PM 33.4872 -80.2478 348° North 343 395 20,400 2,250 Climbing Jacksonville Center
Sun 08:36:27 PM 33.5881 -80.2722 349° North 349 402 22,400 1,750 Climbing Jacksonville Center
Sun 08:37:27 PM 33.6908 -80.2967 349° North 359 413 23,900 1,500 Climbing Jacksonville Center
Sun 08:38:27 PM 33.7936 -80.3261 347° North 369 425 25,400 1,500 Climbing Jacksonville Center
Sun 08:39:27 PM 33.9067 -80.3503 350° North 384 442 26,900 1,500 Climbing Jacksonville Center
Sun 08:40:27 PM 34.0158 -80.3797 347° North 396 456 28,400 1,400 Climbing Jacksonville Center
Sun 08:41:27 PM 34.1292 -80.4064 349° North 401 461 29,700 1,200 Climbing Jacksonville Center
Sun 08:42:27 PM 34.2464 -80.4358 348° North 412 474 30,800 1,114 Climbing Jacksonville Center
Sun 08:44:57 PM 34.5536 -80.5181 348° North 443 510 33,600 1,029 Climbing Atlanta Center
Sun 08:45:57 PM 34.6608 -80.5464 348° North 448 516 34,400 700 Climbing Atlanta Center
Sun 08:46:57 PM 34.7847 -80.5789 348° North 448 516 35,000 300 Climbing Atlanta Center
Sun 08:47:57 PM 34.9108 -80.6067 350° North 458 527 35,000 200 Level Atlanta Center
Sun 08:48:57 PM 35.0453 -80.6417 348° North 478 550 35,400 650 Climbing Atlanta Center
Sun 08:49:57 PM 35.1756 -80.6694 350° North 478 550 36,300 950 Climbing Atlanta Center
Sun 08:50:57 PM 35.3036 -80.7050 347° North 472 543 37,300 950 Climbing Atlanta Center
Sun 08:51:57 PM 35.4256 -80.7356 348° North 459 528 38,200 950 Climbing Atlanta Center
Sun 08:52:57 PM 35.5494 -80.7664 349° North 453 521 39,200 950 Climbing Atlanta Center
Sun 08:53:57 PM 35.6692 -80.7975 348° North 453 521 40,100 400 Climbing Atlanta Center
Sun 08:54:57 PM 35.7911 -80.8283 348° North 448 516 40,000 -50 Descending Atlanta Center
Sun 08:55:57 PM 35.9128 -80.8619 347° North 448 516 40,000  Level Atlanta Center
Sun 08:56:57 PM 36.0494 -80.8978 348° North 453 521 40,000  Level Atlanta Center
Sun 08:57:57 PM 36.1753 -80.9314 348° North 453 521 40,000  Level Atlanta Center
Sun 08:58:57 PM 36.2992 -80.9628 348° North 447 514 40,000  Level Atlanta Center
Sun 08:59:57 PM 36.4231 -80.9967 348° North 447 514 40,000  Level Atlanta Center
Sun 09:01:36 PM 36.6200 -81.0494 348° North 452 520 40,000  Level Indianapolis Center
Sun 09:02:37 PM 36.7392 -81.0808 348° North 449 517 40,000  Level Indianapolis Center
Sun 09:03:38 PM 36.8606 -81.1136 348° North 453 521 40,000  Level Indianapolis Center
Sun 09:04:40 PM 36.9806 -81.1458 348° North 453 521 40,000  Level Indianapolis Center
Sun 09:05:41 PM 37.1194 -81.1817 348° North 456 525 40,000  Level Indianapolis Center
Sun 09:06:42 PM 37.2433 -81.2158 348° North 454 522 40,000  Level Indianapolis Center
Sun 09:07:43 PM 37.3708 -81.2506 348° North 458 527 40,000  Level Indianapolis Center
Sun 09:08:44 PM 37.4919 -81.2836 348° North 456 525 40,000  Level Indianapolis Center
Sun 09:09:46 PM 37.6383 -81.3236 348° North 457 526 40,000  Level Indianapolis Center
Sun 09:10:47 PM 37.7597 -81.3567 348° North 457 526 40,000  Level Indianapolis Center
Sun 09:11:48 PM 37.8761 -81.3886 348° North 459 528 40,000  Level Indianapolis Center
Sun 09:12:49 PM 37.9997 -81.4225 348° North 456 525 40,000  Level Indianapolis Center
Sun 09:13:50 PM 38.1261 -81.4592 347° North 463 533 40,000 -390 Level Indianapolis Center
Sun 09:14:52 PM 38.2531 -81.4928 348° North 464 534 39,200 -1,122 Descending Indianapolis Center
Sun 09:15:53 PM 38.3844 -81.5303 347° North 478 550 37,700 -1,672 Descending Indianapolis Center
Sun 09:16:54 PM 38.5403 -81.5844 345° North 481 554 35,800 -1,574 Descending Indianapolis Center
Sun 09:17:55 PM 38.6478 -81.6408 338° Northwest 477 549 34,500 -885 Descending Indianapolis Center
Sun 09:18:56 PM 38.7722 -81.6753 348° North 465 535 34,000 -244 Descending Indianapolis Center
Sun 09:19:58 PM 38.8964 -81.7075 349° North 451 519 34,000 -195 Level Indianapolis Center
Sun 09:20:59 PM 39.0194 -81.7389 349° North 448 516 33,600 -1,082 Descending Indianapolis Center
Sun 09:22:00 PM 39.1719 -81.7800 348° North 463 533 31,800 -1,672 Descending Indianapolis Center
Sun 09:23:01 PM 39.2972 -81.8108 349° North 460 529 30,200 -1,610 Descending Indianapolis Center
Sun 09:24:03 PM 39.4183 -81.8439 348° North 450 518 28,500 -1,561 Descending Indianapolis Center
Sun 09:25:04 PM 39.5394 -81.8767 348° North 444 511 27,000 -1,525 Descending Indianapolis Center
Sun 09:26:05 PM 39.6583 -81.9086 348° North 438 504 25,400 -1,574 Descending Indianapolis Center
Sun 09:27:06 PM 39.7847 -81.9411 349° North 436 502 23,800 -1,512 Descending Indianapolis Center
Sun 09:28:08 PM 39.9017 -81.9739 348° North 429 494 22,300 -1,512 Descending Indianapolis Center
Sun 09:29:09 PM 40.0200 -82.0064 348° North 431 496 20,700 -1,525 Descending Indianapolis Center
Sun 09:30:10 PM 40.1394 -82.0397 348° North 436 502 19,200 -1,574 Descending Indianapolis Center
Sun 09:31:11 PM 40.2608 -82.0722 348° North 431 496 17,500 -1,610 Descending Indianapolis Center
Sun 09:32:13 PM 40.3669 -82.1011 348° North 391 450 15,900 -1,412 Descending Indianapolis Center
Sun 09:32:36 PM 40.4008 -82.1097 349° North 400 460 15,500 -651 Descending Cleveland Center
Sun 09:33:36 PM 40.4992 -82.0875 10° North 361 415 15,000 -650 Descending Cleveland Center
Sun 09:34:36 PM 40.5814 -82.0047 37° Northeast 347 399 14,200 -950 Descending Cleveland Center
Sun 09:35:36 PM 40.6700 -81.9164 37° Northeast 355 409 13,100 -1,146 Descending Cleveland Center
Sun 09:36:05 PM 40.7103 -81.8786 35° Northeast 379 436 12,500 -1,100 Descending Cleveland Center
Sun 09:36:36 PM 40.7567 -81.8303 38° Northeast 372 428 12,000 -984 Descending Cleveland Center
Sun 09:37:06 PM 40.7922 -81.7981 34° Northeast 378 435 11,500 -1,100 Descending Cleveland Center
Sun 09:37:36 PM 40.8386 -81.7494 38° Northeast 372 428 10,900 -1,180 Descending Cleveland Center
Sun 09:38:07 PM 40.8931 -81.7506 359° North 372 428 10,300 -900 Descending Cleveland Center
Sun 09:38:36 PM 40.9389 -81.7514 359° North 349 402 10,000 -333 Descending Cleveland Center
Sun 09:39:01 PM 40.9742 -81.7656 343° North 339 390 10,000  Level Cleveland Center
Sun 09:39:36 PM 41.0217 -81.8022 330° Northwest 321 369 10,000 -295 Level Cleveland Center
Sun 09:40:02 PM 41.0525 -81.8358 321° Northwest 309 356 9,700 -900 Descending Cleveland Center
Sun 09:40:36 PM 41.0917 -81.8697 327° Northwest 302 348 9,100 -1,082 Descending Cleveland Center
Sun 09:41:03 PM 41.1247 -81.8953 330° Northwest 300 345 8,600 -1,100 Descending Cleveland Center
Sun 09:41:36 PM 41.1642 -81.9181 337° Northwest 296 341 8,000 -1,000 Descending Cleveland Center
Sun 09:42:03 PM 41.1994 -81.9408 334° Northwest 296 341 7,600 -900 Descending Cleveland Center
Sun 09:42:36 PM 41.2325 -81.9553 342° North 290 334 7,100 -1,279 Descending Cleveland Center
Sun 09:43:04 PM 41.2739 -81.9756 340° North 281 323 6,300 -1,500 Descending Cleveland Center
Sun 09:43:36 PM 41.3072 -81.9792 355° North 279 321 5,600 -2,500 Descending Cleveland Center
Sun 09:44:04 PM 41.3428 -81.9689 12° North 251 289 3,800 -2,900 Descending Cleveland Center
Sun 09:44:36 PM 41.3600 -81.9386 53° Northeast 207 238 2,700 -1,869 Descending Cleveland Center
Sun 09:45:05 PM 41.3811 -81.9031 52° Northeast 210 242 1,900 -500 Descending Cleveland Center
Sun 09:46:12 PM 41.4214 -81.8514 44° Northeast 177 204 1,900 142 Level Cleveland Center
Sun 09:47:12 PM 41.4292 -81.9042 281° West 166 191 2,200 104 Climbing Cleveland Center
Sun 09:48:07 PM 41.4078 -81.9453 235° Southwest 157 181 2,100 -313 Descending Cleveland Center
Sun 09:49:07 PM 41.3808 -81.9253 151° Southeast 101 116 1,600 -496 Descending Cleveland Center
Sun 09:50:08 PM 41.3917 -81.8894 68° East 114 131 1,100 -492 Descending Cleveland Center

Login

Don't have an account? Register now (free) for customized features, flight alerts, and more!